Time;durP1;ratioP1;P1;durP2;ratioP2;P2;SDS_P1;SDS_P2;PMS_P1;PMS_P2;Temp;Humidity;BMP_temperature;BMP_pressure;BME280_temperature;BME280_humidity;BME280_pressure;Samples;Min_cycle;Max_cycle;Signal;HPM_P1;HPM_P2
2021/12/27 00:01:29;;;;;;;;;;;;;;;1.27;61.07;100969.27;117366;1182;23448;-56
2021/12/27 00:03:58;;;;;;;;;;;;;;;1.28;61.23;100963.25;117407;1185;22922;-55
2021/12/27 00:06:26;;;;;;;;;;;;;;;1.29;60.95;100967.62;117298;1183;23538;-57
2021/12/27 00:09:14;;;;;;;;;;;;;;;1.28;60.91;100982.95;117334;1185;21838;-56
2021/12/27 00:12:03;;;;;;;;;;;;;;;1.23;61.00;100987.98;117260;1185;21867;-56
2021/12/27 00:14:31;;;;;;;;;;;;;;;1.23;61.12;100991.79;117392;1185;21852;-56
2021/12/27 00:17:00;;;;;;;;;;;;;;;1.24;61.38;100992.85;117430;1183;22834;-56
2021/12/27 00:19:48;;;;;;;;;;;;;;;1.25;61.24;100998.41;117364;1185;23006;-55
2021/12/27 00:22:16;;;;;;;;;;;;;;;1.26;61.00;100999.48;117409;1185;22301;-57
2021/12/27 00:24:47;;;;;;;;;;;;;;;1.26;61.15;101002.41;117396;1183;23453;-56
2021/12/27 00:27:16;;;;;;;;;;;;;;;1.23;60.92;100997.50;117316;1185;21853;-57
2021/12/27 00:29:44;;;;;;;;;;;;;;;1.22;61.16;100993.14;117393;1185;21845;-57
2021/12/27 00:32:13;;;;;;;;;;;;;;;1.23;61.10;100991.25;117394;1185;21863;-57
2021/12/27 00:34:41;;;;;;;;;;;;;;;1.25;61.35;100992.20;117411;1183;21967;-55
2021/12/27 00:37:09;;;;;;;;;;;;;;;1.27;61.31;100991.06;117395;1182;23059;-55
2021/12/27 00:39:38;;;;;;;;;;;;;;;1.28;61.17;100984.54;117404;1185;21831;-57
2021/12/27 00:42:06;;;;;;;;;;;;;;;1.29;61.33;100979.70;117384;1183;23448;-55
2021/12/27 00:44:34;;;;;;;;;;;;;;;1.29;61.36;100971.59;117406;1182;23294;-56
2021/12/27 00:47:02;;;;;;;;;;;;;;;1.30;61.21;100971.63;117358;1183;23544;-55
2021/12/27 00:49:31;;;;;;;;;;;;;;;1.32;61.16;100977.58;117409;1189;21854;-55
2021/12/27 00:51:59;;;;;;;;;;;;;;;1.32;61.25;100975.86;117342;1182;24133;-55
2021/12/27 00:54:27;;;;;;;;;;;;;;;1.32;60.98;100979.30;117326;1182;21840;-55
2021/12/27 00:56:55;;;;;;;;;;;;;;;1.31;61.27;100972.04;117390;1182;23458;-56
2021/12/27 00:59:26;;;;;;;;;;;;;;;1.32;61.02;100970.83;117357;1185;21832;-57
2021/12/27 01:01:54;;;;;;;;;;;;;;;1.32;61.05;100968.06;117365;1182;23529;-55
2021/12/27 01:04:23;;;;;;;;;;;;;;;1.31;60.96;100972.02;117373;1182;21846;-56
2021/12/27 01:06:51;;;;;;;;;;;;;;;1.29;61.15;100971.08;117416;1183;22461;-57
2021/12/27 01:09:33;;;;;;;;;;;;;;;1.29;60.97;100975.05;117413;1184;23788;-55
2021/12/27 01:15:08;;;;;;;;;;;;;;;1.29;61.10;100971.09;117795;1182;23531;-57
2021/12/27 01:17:37;;;;;;;;;;;;;;;1.29;61.04;100965.52;117426;1182;23429;-55
2021/12/27 01:20:06;;;;;;;;;;;;;;;1.30;61.04;100964.18;117409;1185;22978;-55
2021/12/27 01:22:35;;;;;;;;;;;;;;;1.29;61.04;100962.26;117359;1182;23572;-56
2021/12/27 01:25:06;;;;;;;;;;;;;;;1.29;60.97;100964.49;117446;1185;23426;-55
2021/12/27 01:27:35;;;;;;;;;;;;;;;1.29;61.19;100967.61;117351;1182;23554;-55
2021/12/27 01:30:03;;;;;;;;;;;;;;;1.28;60.95;100967.75;117463;1185;23441;-55
2021/12/27 01:32:46;;;;;;;;;;;;;;;1.28;61.03;100971.58;117315;1182;23433;-57
2021/12/27 01:35:14;;;;;;;;;;;;;;;1.31;61.21;100973.56;117380;1183;22928;-56
2021/12/27 01:37:42;;;;;;;;;;;;;;;1.30;61.07;100961.27;117340;1182;21841;-55
2021/12/27 01:40:11;;;;;;;;;;;;;;;1.31;61.19;100952.80;117448;1182;21839;-56
2021/12/27 01:43:15;;;;;;;;;;;;;;;1.32;61.30;100952.48;117498;1183;23429;-55
2021/12/27 01:45:45;;;;;;;;;;;;;;;1.35;61.10;100954.50;117051;1186;21876;-56
2021/12/27 01:48:16;;;;;;;;;;;;;;;1.37;61.18;100956.30;117287;1185;21838;-56
2021/12/27 01:50:44;;;;;;;;;;;;;;;1.38;61.09;100962.38;117326;1185;21859;-55
2021/12/27 01:53:13;;;;;;;;;;;;;;;1.38;61.04;100969.84;117432;1182;23689;-57
2021/12/27 01:55:41;;;;;;;;;;;;;;;1.39;61.19;100970.69;117382;1183;22962;-56
2021/12/27 01:58:19;;;;;;;;;;;;;;;1.38;61.23;100965.47;117331;1182;23429;-55
2021/12/27 02:00:48;;;;;;;;;;;;;;;1.35;61.09;100954.68;117371;1183;22999;-57
2021/12/27 02:03:17;;;;;;;;;;;;;;;1.34;61.01;100955.34;117377;1186;21831;-57
2021/12/27 02:05:47;;;;;;;;;;;;;;;1.34;61.24;100951.01;117377;1183;23570;-55
2021/12/27 02:08:15;;;;;;;;;;;;;;;1.33;61.10;100956.34;117369;1185;21834;-55
2021/12/27 02:10:43;;;;;;;;;;;;;;;1.33;61.08;100950.27;117385;1182;23528;-56
2021/12/27 02:13:11;;;;;;;;;;;;;;;1.33;61.29;100950.80;117410;1183;21836;-57
2021/12/27 02:15:39;;;;;;;;;;;;;;;1.32;61.23;100956.48;117445;1184;23553;-56
2021/12/27 02:18:10;;;;;;;;;;;;;;;1.32;61.12;100962.88;117381;1182;21857;-57
2021/12/27 02:20:40;;;;;;;;;;;;;;;1.32;61.02;100960.83;117421;1186;23427;-55
2021/12/27 02:23:14;;;;;;;;;;;;;;;1.33;60.97;100955.14;117378;1185;24145;-55
2021/12/27 02:25:44;;;;;;;;;;;;;;;1.34;61.08;100950.83;117394;1185;21844;-55
2021/12/27 02:28:12;;;;;;;;;;;;;;;1.35;61.30;100953.81;117407;1186;22946;-58
2021/12/27 02:30:41;;;;;;;;;;;;;;;1.34;61.19;100954.11;117368;1185;23429;-57
2021/12/27 02:33:09;;;;;;;;;;;;;;;1.33;61.08;100962.04;117371;1185;22919;-55
2021/12/27 02:35:47;;;;;;;;;;;;;;;1.31;61.09;100961.83;117401;1182;21843;-54
2021/12/27 02:38:17;;;;;;;;;;;;;;;1.32;60.95;100957.02;117425;1183;23679;-55
2021/12/27 02:40:45;;;;;;;;;;;;;;;1.32;60.95;100956.82;117423;1182;23439;-55
2021/12/27 02:43:14;;;;;;;;;;;;;;;1.30;61.07;100948.47;117417;1184;21842;-57
2021/12/27 02:45:43;;;;;;;;;;;;;;;1.28;60.99;100951.84;117415;1184;21845;-54
2021/12/27 02:48:12;;;;;;;;;;;;;;;1.26;61.15;100953.48;117418;1183;22928;-54
2021/12/27 02:50:40;;;;;;;;;;;;;;;1.25;61.00;100958.83;117374;1185;21841;-55
2021/12/27 02:53:08;;;;;;;;;;;;;;;1.26;61.01;100962.67;117312;1176;21848;-56
2021/12/27 02:55:37;;;;;;;;;;;;;;;1.27;60.95;100965.80;117376;1184;23434;-54
2021/12/27 02:58:06;;;;;;;;;;;;;;;1.27;60.90;100959.23;117391;1182;22789;-55
2021/12/27 03:00:51;;;;;;;;;;;;;;;1.26;61.14;100957.32;117440;1182;21976;-58
2021/12/27 03:03:19;;;;;;;;;;;;;;;1.25;60.88;100953.46;117376;1185;22280;-55
2021/12/27 03:05:47;;;;;;;;;;;;;;;1.23;60.78;100954.08;117333;1184;23477;-55
2021/12/27 03:08:16;;;;;;;;;;;;;;;1.23;61.18;100949.77;117386;1185;24144;-55
2021/12/27 03:10:49;;;;;;;;;;;;;;;1.23;61.02;100947.69;117398;1185;21842;-55
2021/12/27 03:13:43;;;;;;;;;;;;;;;1.21;61.05;100943.13;117346;1186;23608;-55
2021/12/27 03:16:12;;;;;;;;;;;;;;;1.21;60.86;100942.60;117366;1184;22628;-56
2021/12/27 03:18:44;;;;;;;;;;;;;;;1.21;60.92;100939.84;117366;1184;23608;-57
2021/12/27 03:21:12;;;;;;;;;;;;;;;1.21;60.73;100929.98;117473;1182;21842;-56
2021/12/27 03:23:41;;;;;;;;;;;;;;;1.22;61.09;100926.06;117328;1185;23544;-55
2021/12/27 03:26:09;;;;;;;;;;;;;;;1.20;61.12;100927.02;117421;1182;21850;-58
2021/12/27 03:28:37;;;;;;;;;;;;;;;1.20;61.13;100927.37;117388;1182;21854;-57
2021/12/27 03:31:06;;;;;;;;;;;;;;;1.19;61.03;100928.37;117424;1182;21827;-56
2021/12/27 03:33:44;;;;;;;;;;;;;;;1.17;60.96;100927.28;117349;1182;23577;-57
2021/12/27 03:36:13;;;;;;;;;;;;;;;1.13;60.96;100928.52;117386;1182;21856;-55
2021/12/27 03:38:42;;;;;;;;;;;;;;;1.11;61.07;100923.58;117410;1182;23531;-55
2021/12/27 03:41:14;;;;;;;;;;;;;;;1.10;60.86;100925.95;117359;1185;21878;-58
2021/12/27 03:43:47;;;;;;;;;;;;;;;1.09;60.88;100928.86;117338;1183;23427;-55
2021/12/27 03:46:15;;;;;;;;;;;;;;;1.08;60.88;100928.33;117395;1184;22655;-57
2021/12/27 03:48:43;;;;;;;;;;;;;;;1.08;61.17;100932.13;117402;1183;22982;-57
2021/12/27 03:51:11;;;;;;;;;;;;;;;1.09;61.06;100934.06;117435;1182;23452;-57
2021/12/27 03:53:40;;;;;;;;;;;;;;;1.11;61.05;100936.02;117367;1184;24321;-56
2021/12/27 03:56:08;;;;;;;;;;;;;;;1.11;61.02;100935.70;117436;1184;23449;-57
2021/12/27 03:59:08;;;;;;;;;;;;;;;1.10;60.99;100936.71;117411;1185;21841;-57
2021/12/27 04:01:44;;;;;;;;;;;;;;;1.11;61.00;100940.02;117357;1185;23436;-57
2021/12/27 04:04:12;;;;;;;;;;;;;;;1.10;60.98;100941.02;117351;1182;24185;-54
2021/12/27 04:06:41;;;;;;;;;;;;;;;1.09;60.88;100942.91;117432;1186;21839;-55
2021/12/27 04:09:09;;;;;;;;;;;;;;;1.10;60.92;100943.59;117380;1183;23435;-55
2021/12/27 04:11:37;;;;;;;;;;;;;;;1.09;60.89;100943.23;117453;1183;22714;-55
2021/12/27 04:14:05;;;;;;;;;;;;;;;1.09;60.96;100953.95;117416;1183;23427;-54
2021/12/27 04:16:34;;;;;;;;;;;;;;;1.09;61.15;100962.07;117400;1185;21859;-54
2021/12/27 04:19:03;;;;;;;;;;;;;;;1.09;61.02;100960.86;117347;1182;23461;-54
2021/12/27 04:21:32;;;;;;;;;;;;;;;1.11;60.88;100956.09;117351;1182;23436;-55
2021/12/27 04:24:00;;;;;;;;;;;;;;;1.13;60.98;100965.51;117370;1182;22006;-56
2021/12/27 04:26:29;;;;;;;;;;;;;;;1.16;61.08;100969.08;117378;1183;21844;-55
2021/12/27 04:29:00;;;;;;;;;;;;;;;1.19;61.24;100961.57;117342;1185;23426;-54
2021/12/27 04:31:27;;;;;;;;;;;;;;;1.22;60.94;100972.37;117375;1183;23314;-55
2021/12/27 04:33:56;;;;;;;;;;;;;;;1.20;61.00;100974.72;117374;1182;21855;-56
2021/12/27 04:36:24;;;;;;;;;;;;;;;1.18;61.01;100972.08;117341;1185;23417;-54
2021/12/27 04:38:52;;;;;;;;;;;;;;;1.19;61.11;100975.04;117359;1186;21841;-54
2021/12/27 04:41:21;;;;;;;;;;;;;;;1.24;60.92;100978.68;117373;1182;23465;-54
2021/12/27 04:43:49;;;;;;;;;;;;;;;1.29;60.93;100981.80;117364;1182;21842;-57
2021/12/27 04:46:17;;;;;;;;;;;;;;;1.30;60.90;100979.25;117384;1183;21851;-55
2021/12/27 04:48:49;;;;;;;;;;;;;;;1.30;60.71;100980.13;117528;1182;23428;-55
2021/12/27 04:51:20;;;;;;;;;;;;;;;1.28;60.69;100983.48;117378;1182;23527;-56
2021/12/27 04:53:49;;;;;;;;;;;;;;;1.23;60.84;100986.94;117335;1182;23455;-54
2021/12/27 04:56:17;;;;;;;;;;;;;;;1.21;60.80;100987.88;117378;1185;23452;-56
2021/12/27 04:58:46;;;;;;;;;;;;;;;1.20;60.97;100986.16;117362;1182;24150;-55
2021/12/27 05:01:14;;;;;;;;;;;;;;;1.20;60.98;100990.46;117442;1182;22613;-54
2021/12/27 05:03:43;;;;;;;;;;;;;;;1.16;61.02;100991.52;117365;1183;23885;-55
2021/12/27 05:06:13;;;;;;;;;;;;;;;1.11;61.25;100997.40;117355;1183;23608;-54
2021/12/27 05:08:41;;;;;;;;;;;;;;;1.11;61.33;101001.55;117448;1182;21838;-54
2021/12/27 05:11:09;;;;;;;;;;;;;;;1.12;61.28;101002.98;117391;1182;21824;-56
2021/12/27 05:13:37;;;;;;;;;;;;;;;1.10;61.19;101000.67;117390;1185;21851;-55
2021/12/27 05:16:06;;;;;;;;;;;;;;;1.08;61.04;101000.75;117384;1184;23445;-55
2021/12/27 05:18:35;;;;;;;;;;;;;;;1.06;61.02;101007.41;117386;1188;21924;-54
2021/12/27 05:21:03;;;;;;;;;;;;;;;1.04;61.01;101016.87;117383;1183;22908;-56
2021/12/27 05:23:33;;;;;;;;;;;;;;;1.03;61.33;101027.71;117404;1184;23885;-55
2021/12/27 05:26:01;;;;;;;;;;;;;;;1.06;61.13;101028.70;117355;1182;21842;-54
2021/12/27 05:28:34;;;;;;;;;;;;;;;1.07;61.12;101030.11;117365;1176;21841;-57
2021/12/27 05:31:02;;;;;;;;;;;;;;;1.07;61.12;101031.14;117386;1183;23429;-55
2021/12/27 05:33:31;;;;;;;;;;;;;;;1.01;60.81;101038.36;117375;1185;21838;-54
2021/12/27 05:35:59;;;;;;;;;;;;;;;0.97;61.02;101038.54;117142;1184;21848;-55
2021/12/27 05:38:28;;;;;;;;;;;;;;;0.93;60.96;101038.06;117403;1185;23448;-55
2021/12/27 05:40:57;;;;;;;;;;;;;;;0.91;60.92;101038.66;117403;1182;23449;-56
2021/12/27 05:43:27;;;;;;;;;;;;;;;0.87;60.99;101037.32;117380;1184;23499;-54
2021/12/27 05:45:55;;;;;;;;;;;;;;;0.87;60.94;101042.70;117407;1182;23621;-55
2021/12/27 05:48:23;;;;;;;;;;;;;;;0.99;61.16;101051.92;117385;1182;21850;-56
2021/12/27 05:50:52;;;;;;;;;;;;;;;1.11;61.25;101057.06;117433;1182;23449;-57
2021/12/27 05:53:20;;;;;;;;;;;;;;;1.22;61.18;101063.66;117395;1182;21850;-55
2021/12/27 05:55:51;;;;;;;;;;;;;;;1.31;61.52;101065.21;117397;1186;21841;-56
2021/12/27 05:58:19;;;;;;;;;;;;;;;1.34;61.49;101055.97;117429;1182;23987;-56
2021/12/27 06:00:48;;;;;;;;;;;;;;;1.39;61.52;101061.84;117375;1185;23426;-56
2021/12/27 06:03:17;;;;;;;;;;;;;;;1.41;61.38;101060.71;117417;1183;22919;-56
2021/12/27 06:05:46;;;;;;;;;;;;;;;1.47;61.45;101060.77;117407;1182;22789;-55
2021/12/27 06:08:14;;;;;;;;;;;;;;;1.54;61.29;101063.77;117445;1185;21839;-54
2021/12/27 06:10:43;;;;;;;;;;;;;;;1.58;61.19;101064.77;117404;1184;21847;-54
2021/12/27 06:13:11;;;;;;;;;;;;;;;1.60;61.03;101067.27;117366;1182;23528;-57
2021/12/27 06:15:39;;;;;;;;;;;;;;;1.70;60.83;101069.86;117374;1183;22653;-54
2021/12/27 06:18:08;;;;;;;;;;;;;;;1.73;60.91;101067.92;117465;1182;23874;-56
2021/12/27 06:20:36;;;;;;;;;;;;;;;1.77;60.66;101069.59;117373;1182;23429;-56
2021/12/27 06:23:04;;;;;;;;;;;;;;;1.80;60.76;101074.35;117358;1183;21839;-57
2021/12/27 06:25:32;;;;;;;;;;;;;;;1.84;60.76;101073.29;117413;1185;22920;-55
2021/12/27 06:28:00;;;;;;;;;;;;;;;1.89;60.82;101075.02;117341;1188;23897;-56
2021/12/27 06:30:28;;;;;;;;;;;;;;;1.90;60.94;101076.60;117331;1185;23422;-55
2021/12/27 06:32:57;;;;;;;;;;;;;;;1.92;60.83;101079.30;117344;1185;23531;-57
2021/12/27 06:35:25;;;;;;;;;;;;;;;1.94;60.88;101075.90;117389;1183;23529;-56
2021/12/27 06:37:53;;;;;;;;;;;;;;;1.95;60.84;101080.95;117340;1184;23470;-57
2021/12/27 06:40:21;;;;;;;;;;;;;;;1.93;61.02;101079.16;117358;1182;22611;-55
2021/12/27 06:42:50;;;;;;;;;;;;;;;1.87;61.13;101075.81;117408;1182;22196;-57
2021/12/27 06:45:19;;;;;;;;;;;;;;;1.86;60.93;101070.06;117340;1182;23457;-56
2021/12/27 06:47:47;;;;;;;;;;;;;;;1.82;61.26;101071.50;117412;1185;21839;-56
2021/12/27 06:50:15;;;;;;;;;;;;;;;1.77;61.27;101073.76;117414;1183;21879;-57
2021/12/27 06:52:43;;;;;;;;;;;;;;;1.81;61.04;101077.15;117402;1183;23424;-58
2021/12/27 06:55:12;;;;;;;;;;;;;;;1.85;61.19;101077.84;117339;1176;21854;-55
2021/12/27 06:57:40;;;;;;;;;;;;;;;1.89;61.28;101075.70;117345;1183;21847;-55
2021/12/27 07:00:10;;;;;;;;;;;;;;;1.87;61.12;101079.98;117416;1184;23454;-54
2021/12/27 07:02:38;;;;;;;;;;;;;;;1.83;61.16;101077.57;117326;1185;22093;-56
2021/12/27 07:05:07;;;;;;;;;;;;;;;1.75;61.03;101077.33;117308;1185;21839;-56
2021/12/27 07:07:35;;;;;;;;;;;;;;;1.70;61.13;101077.83;117384;1183;23519;-55
2021/12/27 07:10:07;;;;;;;;;;;;;;;1.65;61.10;101079.20;117343;1186;24125;-56
2021/12/27 07:12:36;;;;;;;;;;;;;;;1.61;61.08;101081.65;117393;1185;23434;-58
2021/12/27 07:15:04;;;;;;;;;;;;;;;1.59;61.10;101079.53;117392;1185;23452;-54
2021/12/27 07:17:33;;;;;;;;;;;;;;;1.61;61.21;101079.59;117378;1185;23518;-57
2021/12/27 07:20:01;;;;;;;;;;;;;;;1.68;61.31;101084.66;117361;1185;21995;-55
2021/12/27 07:22:30;;;;;;;;;;;;;;;1.68;61.07;101089.36;117368;1183;23566;-55
2021/12/27 07:24:58;;;;;;;;;;;;;;;1.70;61.02;101091.83;117417;1182;21848;-55
2021/12/27 07:27:26;;;;;;;;;;;;;;;1.73;60.96;101097.52;117364;1182;23426;-55
2021/12/27 07:29:54;;;;;;;;;;;;;;;1.78;61.08;101095.92;117396;1185;21852;-57
2021/12/27 07:32:22;;;;;;;;;;;;;;;1.80;61.13;101087.35;117381;1176;22922;-58
2021/12/27 07:34:50;;;;;;;;;;;;;;;1.81;60.94;101086.85;117372;1185;21839;-57
2021/12/27 07:37:18;;;;;;;;;;;;;;;1.81;61.12;101084.95;117340;1185;21851;-58
2021/12/27 07:39:47;;;;;;;;;;;;;;;1.83;61.14;101087.45;117309;1185;21842;-58
2021/12/27 07:42:15;;;;;;;;;;;;;;;1.84;61.10;101086.80;117349;1183;22986;-59
2021/12/27 07:44:43;;;;;;;;;;;;;;;1.84;61.15;101086.44;117380;1182;21840;-58
2021/12/27 07:47:12;;;;;;;;;;;;;;;1.86;61.15;101085.84;117391;1182;22274;-59
2021/12/27 07:49:40;;;;;;;;;;;;;;;1.92;61.28;101084.99;117382;1183;21901;-58
2021/12/27 07:52:08;;;;;;;;;;;;;;;1.90;60.98;101091.52;117353;1185;23449;-58
2021/12/27 07:54:36;;;;;;;;;;;;;;;1.90;60.77;101091.69;117247;1182;22503;-57
2021/12/27 07:57:04;;;;;;;;;;;;;;;1.88;60.98;101093.69;117460;1182;21842;-57
2021/12/27 07:59:32;;;;;;;;;;;;;;;1.87;60.98;101088.10;117745;1182;23530;-58
2021/12/27 08:02:01;;;;;;;;;;;;;;;1.80;60.98;101087.87;117391;1183;24144;-57
2021/12/27 08:04:30;;;;;;;;;;;;;;;1.73;60.99;101092.48;117330;1182;23621;-59
2021/12/27 08:06:58;;;;;;;;;;;;;;;1.70;61.03;101096.52;117377;1182;23455;-56
2021/12/27 08:09:26;;;;;;;;;;;;;;;1.69;60.99;101094.75;117353;1183;21839;-58
2021/12/27 08:11:54;;;;;;;;;;;;;;;1.71;61.17;101098.11;117404;1182;21878;-57
2021/12/27 08:14:22;;;;;;;;;;;;;;;1.72;61.26;101100.74;117333;1182;23528;-56
2021/12/27 08:16:50;;;;;;;;;;;;;;;1.74;61.23;101098.04;117346;1185;23465;-56
2021/12/27 08:19:38;;;;;;;;;;;;;;;1.76;61.34;101099.84;117353;1185;21843;-56
2021/12/27 08:22:07;;;;;;;;;;;;;;;1.78;61.15;101099.05;117358;1182;22625;-56
2021/12/27 08:24:35;;;;;;;;;;;;;;;1.81;61.23;101093.25;117423;1182;21910;-56
2021/12/27 08:27:04;;;;;;;;;;;;;;;1.80;61.29;101087.86;117379;1185;23525;-57
2021/12/27 08:29:33;;;;;;;;;;;;;;;1.82;61.32;101089.65;117308;1185;23426;-55
2021/12/27 08:32:02;;;;;;;;;;;;;;;1.81;61.39;101099.65;117311;1182;21842;-56
2021/12/27 08:34:31;;;;;;;;;;;;;;;1.81;61.22;101107.63;117419;1185;21899;-58
2021/12/27 08:36:59;;;;;;;;;;;;;;;1.83;61.32;101109.60;117395;1184;23531;-57
2021/12/27 08:39:28;;;;;;;;;;;;;;;1.86;61.21;101111.79;117373;1183;23448;-56
2021/12/27 08:41:56;;;;;;;;;;;;;;;1.88;61.27;101108.59;117397;1182;23553;-57
2021/12/27 08:44:24;;;;;;;;;;;;;;;1.92;61.39;101101.95;117378;1185;21960;-57
2021/12/27 08:46:52;;;;;;;;;;;;;;;1.94;61.40;101093.73;117433;1185;23554;-58
2021/12/27 08:49:21;;;;;;;;;;;;;;;1.97;61.37;101085.87;117379;1183;21847;-56
2021/12/27 08:51:49;;;;;;;;;;;;;;;1.98;61.28;101077.05;117292;1184;22630;-56
2021/12/27 08:54:17;;;;;;;;;;;;;;;2.00;61.24;101063.46;117408;1182;24126;-56
2021/12/27 08:56:46;;;;;;;;;;;;;;;2.02;61.22;101053.47;117330;1184;21841;-57
2021/12/27 08:59:14;;;;;;;;;;;;;;;2.01;61.37;101054.13;117435;1183;23443;-57
2021/12/27 09:01:43;;;;;;;;;;;;;;;2.08;61.58;101052.98;117394;1181;22516;-57
2021/12/27 09:04:11;;;;;;;;;;;;;;;2.17;61.67;101050.86;117401;1184;23435;-57
2021/12/27 09:06:40;;;;;;;;;;;;;;;2.32;61.59;101047.70;117397;1182;24112;-57
2021/12/27 09:09:08;;;;;;;;;;;;;;;2.36;61.53;101046.27;117349;1182;21878;-57
2021/12/27 09:11:36;;;;;;;;;;;;;;;2.46;61.52;101045.70;117358;1183;23427;-56
2021/12/27 09:14:05;;;;;;;;;;;;;;;2.53;61.43;101047.48;117351;1185;23520;-57
2021/12/27 09:16:43;;;;;;;;;;;;;;;2.58;61.44;101049.91;117374;1183;24210;-58
2021/12/27 09:19:11;;;;;;;;;;;;;;;2.67;61.41;101044.95;117309;1187;21839;-58
2021/12/27 09:21:39;;;;;;;;;;;;;;;2.71;61.35;101042.82;117313;1182;22709;-59
2021/12/27 09:24:07;;;;;;;;;;;;;;;2.71;61.36;101038.34;117332;1185;23739;-59
2021/12/27 09:26:35;;;;;;;;;;;;;;;2.75;61.22;101031.18;117398;1182;23544;-58
2021/12/27 09:29:03;;;;;;;;;;;;;;;2.79;61.33;101027.14;117324;1185;21850;-59
2021/12/27 09:31:32;;;;;;;;;;;;;;;2.79;61.33;101022.45;117364;1185;23541;-58
2021/12/27 09:34:01;;;;;;;;;;;;;;;2.80;61.20;101017.46;117384;1182;23060;-59
2021/12/27 09:36:31;;;;;;;;;;;;;;;2.79;61.28;101000.80;117339;1182;21977;-58
2021/12/27 09:38:59;;;;;;;;;;;;;;;2.79;61.23;100999.23;117364;1184;24762;-58
2021/12/27 09:41:27;;;;;;;;;;;;;;;2.79;61.32;100997.85;117412;1182;23618;-58
2021/12/27 09:43:55;;;;;;;;;;;;;;;2.82;61.22;100995.16;117358;1189;23541;-59
2021/12/27 09:46:24;;;;;;;;;;;;;;;2.83;61.36;100982.36;117350;1182;23528;-58
2021/12/27 09:48:52;;;;;;;;;;;;;;;2.83;61.30;100980.27;117320;1183;23439;-58
2021/12/27 09:51:21;;;;;;;;;;;;;;;2.84;61.32;100981.52;118064;1185;21880;-58
2021/12/27 09:53:49;;;;;;;;;;;;;;;2.87;61.31;100981.08;118148;1182;21852;-58
2021/12/27 09:56:17;;;;;;;;;;;;;;;2.89;61.33;100980.45;117350;1183;23436;-59
2021/12/27 09:58:45;;;;;;;;;;;;;;;2.93;61.20;100978.66;117355;1184;23429;-58
2021/12/27 10:01:13;;;;;;;;;;;;;;;2.95;61.15;100976.11;117324;1184;24156;-58
2021/12/27 10:03:49;;;;;;;;;;;;;;;2.95;61.21;100972.65;117358;1182;22865;-60
2021/12/27 10:06:20;;;;;;;;;;;;;;;2.92;61.29;100970.80;117362;1182;23452;-59
2021/12/27 10:08:50;;;;;;;;;;;;;;;2.86;61.31;100970.13;117359;1184;22476;-59
2021/12/27 10:11:19;;;;;;;;;;;;;;;2.82;61.35;100966.91;117394;1185;21882;-59
2021/12/27 10:13:59;;;;;;;;;;;;;;;2.83;61.48;100962.94;117424;1185;22923;-59
2021/12/27 10:16:28;;;;;;;;;;;;;;;2.84;61.49;100957.08;117362;1181;22822;-58
2021/12/27 10:18:56;;;;;;;;;;;;;;;2.82;61.54;100951.33;117339;1183;21848;-59
2021/12/27 10:21:25;;;;;;;;;;;;;;;2.81;61.52;100945.23;117331;1183;23420;-59
2021/12/27 10:24:03;;;;;;;;;;;;;;;2.80;61.52;100939.83;117364;1184;23430;-58
2021/12/27 10:26:31;;;;;;;;;;;;;;;2.79;61.47;100935.96;117294;1185;22623;-58
2021/12/27 10:29:26;;;;;;;;;;;;;;;2.79;61.41;100939.43;117333;1182;22979;-58
2021/12/27 10:31:57;;;;;;;;;;;;;;;2.83;61.47;100943.36;117349;1185;23523;-59
2021/12/27 10:34:29;;;;;;;;;;;;;;;2.84;61.34;100942.52;117387;1184;23437;-59
2021/12/27 10:36:59;;;;;;;;;;;;;;;2.81;61.35;100938.27;117361;1185;22642;-58
2021/12/27 10:39:28;;;;;;;;;;;;;;;2.79;61.35;100939.79;117336;1185;24134;-59
2021/12/27 10:42:07;;;;;;;;;;;;;;;2.70;61.36;100937.61;117313;1181;21875;-58
2021/12/27 10:44:36;;;;;;;;;;;;;;;2.67;61.42;100935.80;117341;1182;24172;-58
2021/12/27 10:47:04;;;;;;;;;;;;;;;2.62;61.27;100930.80;117342;1185;21842;-58
2021/12/27 10:49:43;;;;;;;;;;;;;;;2.56;61.29;100934.63;117359;1182;23518;-58
2021/12/27 10:52:11;;;;;;;;;;;;;;;2.56;61.59;100925.59;117347;1186;21851;-58
2021/12/27 10:54:40;;;;;;;;;;;;;;;2.62;61.54;100925.25;117347;1182;21832;-59
2021/12/27 10:57:08;;;;;;;;;;;;;;;2.67;61.68;100924.34;117348;1184;21864;-58
2021/12/27 10:59:36;;;;;;;;;;;;;;;2.71;61.70;100923.25;117426;1184;21849;-58
2021/12/27 11:02:11;;;;;;;;;;;;;;;2.72;61.55;100921.56;117371;1184;23258;-58
2021/12/27 11:04:39;;;;;;;;;;;;;;;2.73;61.59;100914.65;117381;1183;23426;-58
2021/12/27 11:07:27;;;;;;;;;;;;;;;2.73;61.51;100909.27;117351;1185;21851;-59
2021/12/27 11:09:56;;;;;;;;;;;;;;;2.71;61.56;100908.17;117368;1184;23430;-59
2021/12/27 11:12:24;;;;;;;;;;;;;;;2.69;61.74;100899.45;117411;1182;24177;-58
2021/12/27 11:14:53;;;;;;;;;;;;;;;2.69;61.62;100897.02;117413;1184;23451;-58
2021/12/27 11:17:21;;;;;;;;;;;;;;;2.69;61.50;100896.33;117415;1185;22893;-58
2021/12/27 11:19:53;;;;;;;;;;;;;;;2.69;61.55;100888.89;117373;1183;23521;-58
2021/12/27 11:22:21;;;;;;;;;;;;;;;2.73;61.59;100883.46;117393;1183;22796;-58
2021/12/27 11:24:49;;;;;;;;;;;;;;;2.75;61.39;100886.29;117365;1181;24248;-59
2021/12/27 11:27:17;;;;;;;;;;;;;;;2.74;61.47;100890.26;117348;1185;22919;-58
2021/12/27 11:30:02;;;;;;;;;;;;;;;2.75;61.49;100897.73;117376;1185;23443;-58
2021/12/27 11:33:03;;;;;;;;;;;;;;;2.76;61.45;100899.31;117344;1185;23446;-58
2021/12/27 11:35:35;;;;;;;;;;;;;;;2.74;61.42;100898.21;117376;1185;23803;-58
2021/12/27 11:38:04;;;;;;;;;;;;;;;2.74;61.45;100896.82;117358;1181;22039;-58
2021/12/27 11:40:39;;;;;;;;;;;;;;;2.73;61.38;100892.11;117429;1185;24904;-59
2021/12/27 11:43:08;;;;;;;;;;;;;;;2.74;61.57;100888.85;117390;1183;22983;-57
2021/12/27 11:45:40;;;;;;;;;;;;;;;2.76;61.45;100890.81;117302;1185;24205;-59
2021/12/27 11:48:24;;;;;;;;;;;;;;;2.78;61.50;100887.75;117338;1185;21848;-59
2021/12/27 11:50:59;;;;;;;;;;;;;;;2.78;61.52;100884.13;117398;1182;21989;-58
2021/12/27 11:53:31;;;;;;;;;;;;;;;2.76;61.56;100886.99;117382;1183;22919;-59
2021/12/27 11:56:00;;;;;;;;;;;;;;;2.77;61.52;100894.48;117366;1182;23606;-59
2021/12/27 11:58:28;;;;;;;;;;;;;;;2.77;61.45;100895.52;117351;1182;21843;-59
2021/12/27 12:00:57;;;;;;;;;;;;;;;2.74;61.45;100895.79;117343;1184;21839;-58
2021/12/27 12:03:44;;;;;;;;;;;;;;;2.72;61.46;100895.89;117362;1184;23452;-58
2021/12/27 12:06:31;;;;;;;;;;;;;;;2.71;61.50;100881.84;118454;1176;21851;-59
2021/12/27 12:08:59;;;;;;;;;;;;;;;2.72;61.48;100875.95;117415;1185;21926;-57
2021/12/27 12:11:30;;;;;;;;;;;;;;;2.73;61.54;100878.95;117458;1185;21851;-58
2021/12/27 12:13:59;;;;;;;;;;;;;;;2.73;61.53;100877.23;117384;1182;21972;-59
2021/12/27 12:16:28;;;;;;;;;;;;;;;2.73;61.44;100871.67;117222;1186;22926;-58
2021/12/27 12:18:57;;;;;;;;;;;;;;;2.73;61.36;100865.77;117357;1185;22915;-59
2021/12/27 12:21:32;;;;;;;;;;;;;;;2.74;61.28;100856.27;117419;1185;23430;-59
2021/12/27 12:24:01;;;;;;;;;;;;;;;2.71;61.32;100861.73;117415;1185;21845;-58
2021/12/27 12:26:45;;;;;;;;;;;;;;;2.68;61.31;100861.48;117418;1184;21925;-58
2021/12/27 12:29:44;;;;;;;;;;;;;;;2.63;61.34;100865.86;117381;1184;23522;-58
2021/12/27 12:32:15;;;;;;;;;;;;;;;2.60;61.22;100860.39;117306;1188;23621;-57
2021/12/27 12:34:44;;;;;;;;;;;;;;;2.58;61.37;100855.48;117332;1183;24150;-58
2021/12/27 12:37:13;;;;;;;;;;;;;;;2.56;61.43;100845.72;117371;1185;23542;-58
2021/12/27 12:39:49;;;;;;;;;;;;;;;2.56;61.34;100840.01;117388;1185;21848;-59
2021/12/27 12:42:19;;;;;;;;;;;;;;;2.58;61.36;100840.40;117365;1180;23554;-58
2021/12/27 12:44:54;;;;;;;;;;;;;;;2.58;61.36;100843.54;117387;1184;24729;-59
2021/12/27 12:47:39;;;;;;;;;;;;;;;2.57;61.46;100838.13;117370;1183;23445;-58
2021/12/27 12:50:14;;;;;;;;;;;;;;;2.59;61.48;100838.18;117442;1185;23429;-58
2021/12/27 12:52:48;;;;;;;;;;;;;;;2.60;61.40;100846.54;117359;1185;24136;-58
2021/12/27 12:55:23;;;;;;;;;;;;;;;2.61;61.29;100845.17;117880;1185;22233;-59